Time,TemperatureF,DewpointF,PressureIn,WindDirection,WindDirectionDegrees,WindSpeedMPH,WindSpeedGustMPH,Humidity,HourlyPrecipIn,Conditions,Clouds,dailyrainin,SoftwareType,DateUTC
2013-03-16 00:09:00,49.1,46.0,30.06,South,187,0.0,0.0,90,0.00,,,0.00,weatherlink.com 1.10,2013-03-16 07:09:00,
2013-03-16 00:24:00,48.6,46.0,30.05,South,188,0.0,0.0,91,0.00,,,0.00,weatherlink.com 1.10,2013-03-16 07:24:00,
2013-03-16 00:40:00,48.3,46.0,30.05,South,188,0.0,0.0,91,0.00,,,0.00,weatherlink.com 1.10,2013-03-16 07:40:00,
2013-03-16 00:55:00,47.9,46.0,30.05,South,188,0.0,0.0,92,0.00,,,0.00,weatherlink.com 1.10,2013-03-16 07:55:00,
2013-03-16 01:10:00,47.5,45.0,30.05,South,189,0.0,0.0,92,0.00,,,0.00,weatherlink.com 1.10,2013-03-16 08:10:00,
2013-03-16 01:25:00,47.1,45.0,30.05,South,188,0.0,0.0,93,0.00,,,0.00,weatherlink.com 1.10,2013-03-16 08:25:00,
2013-03-16 01:40:00,46.8,45.0,30.05,South,188,0.0,0.0,93,0.00,,,0.00,weatherlink.com 1.10,2013-03-16 08:40:00,
2013-03-16 01:55:00,46.4,45.0,30.05,South,188,0.0,0.0,93,0.00,,,0.00,weatherlink.com 1.10,2013-03-16 08:55:00,
2013-03-16 02:10:00,46.1,45.0,30.05,South,187,0.0,0.0,94,0.00,,,0.00,weatherlink.com 1.10,2013-03-16 09:10:00,
2013-03-16 02:25:00,45.8,44.0,30.05,South,188,0.0,0.0,94,0.00,,,0.00,weatherlink.com 1.10,2013-03-16 09:25:00,
2013-03-16 02:40:00,45.5,44.0,30.05,South,188,0.0,0.0,94,0.00,,,0.00,weatherlink.com 1.10,2013-03-16 09:40:00,
2013-03-16 02:55:00,45.2,44.0,30.05,South,187,0.0,0.0,95,0.00,,,0.00,weatherlink.com 1.10,2013-03-16 09:55:00,
2013-03-16 03:10:00,44.9,44.0,30.05,South,189,0.0,0.0,95,0.00,,,0.00,weatherlink.com 1.10,2013-03-16 10:10:00,
2013-03-16 03:25:00,44.6,43.0,30.05,South,187,0.0,0.0,95,0.00,,,0.00,weatherlink.com 1.10,2013-03-16 10:25:00,
2013-03-16 03:40:00,44.4,43.0,30.04,South,187,0.0,0.0,95,0.00,,,0.00,weatherlink.com 1.10,2013-03-16 10:40:00,
2013-03-16 03:55:00,44.1,43.0,30.05,South,188,0.0,0.0,95,0.00,,,0.00,weatherlink.com 1.10,2013-03-16 10:55:00,
2013-03-16 04:10:00,43.8,43.0,30.05,South,188,0.0,0.0,96,0.00,,,0.00,weatherlink.com 1.10,2013-03-16 11:10:00,
2013-03-16 04:25:00,43.6,43.0,30.05,SSE,167,0.0,0.0,96,0.00,,,0.00,weatherlink.com 1.10,2013-03-16 11:25:00,
2013-03-16 04:40:00,43.4,42.0,30.04,South,170,0.0,0.0,96,0.00,,,0.00,weatherlink.com 1.10,2013-03-16 11:40:00,
2013-03-16 04:55:00,43.0,42.0,30.03,South,171,0.0,0.0,96,0.00,,,0.00,weatherlink.com 1.10,2013-03-16 11:55:00,
2013-03-16 05:10:00,42.7,42.0,30.04,South,171,0.0,0.0,96,0.00,,,0.00,weatherlink.com 1.10,2013-03-16 12:10:00,
2013-03-16 05:25:00,42.5,42.0,30.04,South,170,0.0,0.0,96,0.00,,,0.00,weatherlink.com 1.10,2013-03-16 12:25:00,
2013-03-16 05:40:00,42.4,41.0,30.04,South,170,0.0,0.0,96,0.00,,,0.00,weatherlink.com 1.10,2013-03-16 12:40:00,
2013-03-16 05:55:00,42.1,41.0,30.04,South,173,0.0,0.0,96,0.00,,,0.00,weatherlink.com 1.10,2013-03-16 12:55:00,
2013-03-16 06:10:00,41.9,41.0,30.04,South,172,0.0,0.0,96,0.00,,,0.00,weatherlink.com 1.10,2013-03-16 13:10:00,
2013-03-16 06:25:00,41.6,41.0,30.05,South,172,0.0,0.0,96,0.00,,,0.00,weatherlink.com 1.10,2013-03-16 13:25:00,
2013-03-16 06:40:00,41.4,40.0,30.06,South,172,0.0,0.0,96,0.00,,,0.00,weatherlink.com 1.10,2013-03-16 13:40:00,
2013-03-16 06:55:00,41.2,40.0,30.06,South,172,0.0,0.0,96,0.00,,,0.00,weatherlink.com 1.10,2013-03-16 13:55:00,
2013-03-16 07:10:00,40.9,40.0,30.07,South,172,0.0,0.0,96,0.00,,,0.00,weatherlink.com 1.10,2013-03-16 14:10:00,
2013-03-16 07:25:00,40.7,40.0,30.06,South,172,0.0,0.0,96,0.00,,,0.00,weatherlink.com 1.10,2013-03-16 14:25:00,
2013-03-16 07:41:00,40.6,40.0,30.06,South,172,0.0,0.0,97,0.00,,,0.00,weatherlink.com 1.10,2013-03-16 14:41:00,
2013-03-16 07:56:00,40.6,40.0,30.07,South,172,0.0,0.0,97,0.00,,,0.00,weatherlink.com 1.10,2013-03-16 14:56:00,
2013-03-16 08:11:00,40.6,40.0,30.08,West,271,0.0,0.0,97,0.00,,,0.00,weatherlink.com 1.10,2013-03-16 15:11:00,
2013-03-16 08:26:00,40.6,40.0,30.07,West,272,0.0,0.0,97,0.00,,,0.00,weatherlink.com 1.10,2013-03-16 15:26:00,
2013-03-16 08:41:00,40.7,40.0,30.07,West,271,0.0,0.0,97,0.00,,,0.00,weatherlink.com 1.10,2013-03-16 15:41:00,
2013-03-16 08:56:00,41.1,40.0,30.07,West,273,0.0,0.0,97,0.00,,,0.00,weatherlink.com 1.10,2013-03-16 15:56:00,
2013-03-16 09:11:00,41.6,41.0,30.08,WNW,303,0.0,0.0,98,0.00,,,0.00,weatherlink.com 1.10,2013-03-16 16:11:00,
2013-03-16 09:26:00,42.4,42.0,30.08,WNW,303,0.0,0.0,98,0.00,,,0.00,weatherlink.com 1.10,2013-03-16 16:26:00,
2013-03-16 09:41:00,43.3,43.0,30.08,NW,304,0.0,0.0,98,0.00,,,0.00,weatherlink.com 1.10,2013-03-16 16:41:00,
2013-03-16 09:56:00,44.5,44.0,30.09,WNW,303,0.0,0.0,98,0.00,,,0.00,weatherlink.com 1.10,2013-03-16 16:56:00,
2013-03-16 10:11:00,46.3,46.0,30.09,NNW,342,0.0,0.0,98,0.00,,,0.00,weatherlink.com 1.10,2013-03-16 17:11:00,
2013-03-16 10:56:00,51.3,51.0,30.09,NNW,342,0.0,0.0,97,0.00,,,0.00,weatherlink.com 1.10,2013-03-16 17:56:00,
2013-03-16 11:11:00,53.2,51.0,30.07,NNW,342,0.0,0.0,93,0.00,,,0.00,weatherlink.com 1.10,2013-03-16 18:11:00,
2013-03-16 11:26:00,55.0,52.0,30.08,ESE,110,0.0,0.0,90,0.00,,,0.00,weatherlink.com 1.10,2013-03-16 18:26:00,
2013-03-16 11:41:00,56.6,53.0,30.08,East,87,0.0,0.0,87,0.00,,,0.00,weatherlink.com 1.10,2013-03-16 18:41:00,
2013-03-16 11:56:00,58.2,52.0,30.07,NE,39,0.0,0.0,80,0.00,,,0.00,weatherlink.com 1.10,2013-03-16 18:56:00,
2013-03-16 12:11:00,60.1,53.0,30.07,ESE,115,0.0,0.0,77,0.00,,,0.00,weatherlink.com 1.10,2013-03-16 19:11:00,
2013-03-16 12:41:00,63.3,53.0,30.05,East,86,0.0,0.0,68,0.00,,,0.00,weatherlink.com 1.10,2013-03-16 19:41:00,
2013-03-16 12:56:00,64.6,54.0,30.05,ESE,110,0.0,0.0,69,0.00,,,0.00,weatherlink.com 1.10,2013-03-16 19:56:00,
2013-03-16 13:11:00,66.3,52.0,30.05,ENE,77,0.0,1.0,61,0.00,,,0.00,weatherlink.com 1.10,2013-03-16 20:11:00,
2013-03-16 13:26:00,67.3,53.0,30.04,SE,129,0.0,1.0,60,0.00,,,0.00,weatherlink.com 1.10,2013-03-16 20:26:00,
2013-03-16 13:42:00,69.2,52.0,30.04,ENE,76,1.0,3.0,54,0.00,,,0.00,weatherlink.com 1.10,2013-03-16 20:42:00,
2013-03-16 13:57:00,71.4,36.0,30.04,NNE,21,0.0,3.0,27,0.00,,,0.00,weatherlink.com 1.10,2013-03-16 20:57:00,
2013-03-16 14:12:00,73.3,34.0,30.03,East,94,3.0,7.0,24,0.00,,,0.00,weatherlink.com 1.10,2013-03-16 21:12:00,
2013-03-16 14:27:00,73.4,35.0,30.02,East,101,0.0,7.0,25,0.00,,,0.00,weatherlink.com 1.10,2013-03-16 21:27:00,
2013-03-16 14:42:00,73.2,47.0,30.03,ESE,113,2.0,7.0,39,0.00,,,0.00,weatherlink.com 1.10,2013-03-16 21:42:00,
2013-03-16 14:57:00,73.1,39.0,30.02,ESE,102,1.0,8.0,29,0.00,,,0.00,weatherlink.com 1.10,2013-03-16 21:57:00,
2013-03-16 15:12:00,72.8,45.0,30.02,SSE,167,3.0,4.0,37,0.00,,,0.00,weatherlink.com 1.10,2013-03-16 22:12:00,
2013-03-16 15:27:00,73.2,39.0,30.02,SSE,160,1.0,8.0,29,0.00,,,0.00,weatherlink.com 1.10,2013-03-16 22:27:00,
2013-03-16 15:42:00,73.7,36.0,30.02,SW,224,2.0,7.0,25,0.00,,,0.00,weatherlink.com 1.10,2013-03-16 22:42:00,
2013-03-16 15:57:00,72.6,37.0,30.03,SSW,202,1.0,9.0,27,0.00,,,0.00,weatherlink.com 1.10,2013-03-16 22:57:00,
2013-03-16 16:12:00,72.1,42.0,30.01,NW,306,2.0,5.0,34,0.00,,,0.00,weatherlink.com 1.10,2013-03-16 23:12:00,
2013-03-16 16:27:00,71.9,38.0,30.02,SE,134,2.0,8.0,29,0.00,,,0.00,weatherlink.com 1.10,2013-03-16 23:27:00,
2013-03-16 16:42:00,71.6,39.0,30.02,ESE,117,4.0,6.0,31,0.00,,,0.00,weatherlink.com 1.10,2013-03-16 23:42:00,
2013-03-16 16:57:00,67.9,48.0,30.02,SE,136,2.0,3.0,49,0.00,,,0.00,weatherlink.com 1.10,2013-03-16 23:57:00,
2013-03-16 17:12:00,68.1,40.0,30.01,East,94,1.0,5.0,36,0.00,,,0.00,weatherlink.com 1.10,2013-03-17 00:12:00,
2013-03-16 17:27:00,67.2,47.0,30.02,NE,49,0.0,4.0,48,0.00,,,0.00,weatherlink.com 1.10,2013-03-17 00:27:00,
2013-03-16 17:42:00,66.4,48.0,30.02,SE,137,0.0,4.0,51,0.00,,,0.00,weatherlink.com 1.10,2013-03-17 00:42:00,
2013-03-16 17:57:00,66.9,39.0,30.02,ESE,113,2.0,6.0,36,0.00,,,0.00,weatherlink.com 1.10,2013-03-17 00:57:00,
2013-03-16 18:12:00,65.9,48.0,30.02,SSE,148,3.0,4.0,52,0.00,,,0.00,weatherlink.com 1.10,2013-03-17 01:12:00,
2013-03-16 18:27:00,65.1,46.0,30.02,South,174,0.0,2.0,51,0.00,,,0.00,weatherlink.com 1.10,2013-03-17 01:27:00,
2013-03-16 18:42:00,63.2,49.0,30.02,NNE,32,0.0,1.0,60,0.00,,,0.00,weatherlink.com 1.10,2013-03-17 01:42:00,
2013-03-16 18:57:00,62.4,47.0,30.03,SE,134,0.0,0.0,57,0.00,,,0.00,weatherlink.com 1.10,2013-03-17 01:57:00,
2013-03-16 19:27:00,60.3,48.0,30.04,NNE,19,0.0,0.0,64,0.00,,,0.00,weatherlink.com 1.10,2013-03-17 02:27:00,
2013-03-16 19:42:00,59.2,48.0,30.04,North,11,0.0,2.0,66,0.00,,,0.00,weatherlink.com 1.10,2013-03-17 02:42:00,
2013-03-16 19:57:00,58.4,46.0,30.04,NNE,12,0.0,0.0,63,0.00,,,0.00,weatherlink.com 1.10,2013-03-17 02:57:00,
2013-03-16 20:12:00,58.4,43.0,30.05,East,101,0.0,0.0,56,0.00,,,0.00,weatherlink.com 1.10,2013-03-17 03:12:00,
2013-03-16 20:27:00,61.3,42.0,30.05,SSE,163,2.0,5.0,49,0.00,,,0.00,weatherlink.com 1.10,2013-03-17 03:27:00,
2013-03-16 20:42:00,60.3,45.0,30.06,SSW,198,2.0,3.0,58,0.00,,,0.00,weatherlink.com 1.10,2013-03-17 03:42:00,
2013-03-16 20:57:00,58.1,46.0,30.07,SSW,197,1.0,3.0,64,0.00,,,0.00,weatherlink.com 1.10,2013-03-17 03:57:00,
2013-03-16 21:12:00,57.1,46.0,30.08,SSW,201,0.0,1.0,67,0.00,,,0.00,weatherlink.com 1.10,2013-03-17 04:12:00,
2013-03-16 21:27:00,56.6,46.0,30.09,SSW,194,0.0,0.0,67,0.00,,,0.00,weatherlink.com 1.10,2013-03-17 04:27:00,
2013-03-16 21:42:00,55.6,46.0,30.10,North,352,0.0,0.0,69,0.00,,,0.00,weatherlink.com 1.10,2013-03-17 04:42:00,
2013-03-16 21:57:00,54.8,46.0,30.11,NNW,344,0.0,0.0,71,0.00,,,0.00,weatherlink.com 1.10,2013-03-17 04:57:00,
2013-03-16 22:12:00,54.1,46.0,30.11,NNW,344,0.0,0.0,73,0.00,,,0.00,weatherlink.com 1.10,2013-03-17 05:12:00,
2013-03-16 22:27:00,53.5,45.0,30.12,North,360,0.0,0.0,73,0.00,,,0.00,weatherlink.com 1.10,2013-03-17 05:27:00,
2013-03-16 22:42:00,53.1,45.0,30.12,North,359,0.0,0.0,74,0.00,,,0.00,weatherlink.com 1.10,2013-03-17 05:42:00,
2013-03-16 22:57:00,52.7,45.0,30.13,North,360,0.0,0.0,75,0.00,,,0.00,weatherlink.com 1.10,2013-03-17 05:57:00,
2013-03-16 23:12:00,52.2,45.0,30.13,North,360,0.0,0.0,76,0.00,,,0.00,weatherlink.com 1.10,2013-03-17 06:12:00,
2013-03-16 23:27:00,51.7,44.0,30.13,North,360,0.0,0.0,76,0.00,,,0.00,weatherlink.com 1.10,2013-03-17 06:27:00,
2013-03-16 23:42:00,51.2,44.0,30.14,North,360,0.0,0.0,77,0.00,,,0.00,weatherlink.com 1.10,2013-03-17 06:42:00,
2013-03-16 23:57:00,50.6,44.0,30.14,North,359,0.0,0.0,79,0.00,,,0.00,weatherlink.com 1.10,2013-03-17 06:57:00,